Time;durP1;ratioP1;P1;durP2;ratioP2;P2;SDS_P1;SDS_P2;PMS_P1;PMS_P2;Temp;Humidity;BMP_temperature;BMP_pressure;BME280_temperature;BME280_humidity;BME280_pressure;Samples;Min_cycle;Max_cycle;Signal;HPM_P1;HPM_P2
2022/09/13 00:01:32;;;;;;;18.90;13.63;;;17.80;99.90;;;;;;5039305;28;20044;-75
2022/09/13 00:03:58;;;;;;;16.40;12.98;;;17.20;99.90;;;;;;5073493;28;20040;-74
2022/09/13 00:06:24;;;;;;;18.45;14.18;;;17.50;99.90;;;;;;5072465;28;20104;-75
2022/09/13 00:08:52;;;;;;;19.50;13.57;;;17.50;99.90;;;;;;5071677;28;20067;-75
2022/09/13 00:11:27;;;;;;;22.10;15.23;;;17.50;99.90;;;;;;5072419;28;20045;-74
2022/09/13 00:13:54;;;;;;;20.75;14.15;;;17.40;99.90;;;;;;5073414;28;20049;-74
2022/09/13 00:16:23;;;;;;;19.58;14.55;;;17.40;99.90;;;;;;5072780;28;20041;-74
2022/09/13 00:18:50;;;;;;;21.80;16.73;;;17.60;99.90;;;;;;5072816;28;20056;-74
2022/09/13 00:21:18;;;;;;;19.48;14.88;;;17.60;99.90;;;;;;5073196;28;20044;-74
2022/09/13 00:23:49;;;;;;;20.30;14.13;;;17.50;99.90;;;;;;5073908;28;20243;-74
2022/09/13 00:26:18;;;;;;;24.63;15.55;;;17.50;99.90;;;;;;5073249;28;20048;-73
2022/09/13 00:28:47;;;;;;;19.58;14.48;;;17.80;99.90;;;;;;5073015;28;20454;-74
2022/09/13 00:31:13;;;;;;;20.30;15.02;;;17.40;99.90;;;;;;5072100;28;20546;-75
2022/09/13 00:33:38;;;;;;;20.02;14.57;;;17.40;99.90;;;;;;5071960;28;20102;-75
2022/09/13 00:36:09;;;;;;;20.35;15.40;;;17.40;99.90;;;;;;5072148;28;20055;-75
2022/09/13 00:38:38;;;;;;;21.85;14.95;;;17.70;99.90;;;;;;5038769;28;20052;-75
2022/09/13 00:41:07;;;;;;;20.42;15.73;;;17.50;99.90;;;;;;5073052;28;20040;-75
2022/09/13 00:43:51;;;;;;;24.38;16.67;;;17.50;99.90;;;;;;5073538;28;20127;-75
2022/09/13 00:46:41;;;;;;;21.65;15.77;;;17.60;99.90;;;;;;5072519;28;20040;-74
2022/09/13 00:49:13;;;;;;;26.60;17.50;;;17.50;99.90;;;;;;5072131;28;20037;-75
2022/09/13 00:51:48;;;;;;;20.30;14.73;;;17.30;99.90;;;;;;5075307;28;20049;-74
2022/09/13 00:54:16;;;;;;;20.08;14.00;;;17.50;99.90;;;;;;5077367;28;20459;-75
2022/09/13 00:56:45;;;;;;;20.50;14.32;;;17.40;99.90;;;;;;5076904;28;20055;-75
2022/09/13 00:59:36;;;;;;;19.25;14.10;;;17.60;99.90;;;;;;5076468;28;20039;-75
2022/09/13 01:02:03;;;;;;;23.38;15.52;;;17.50;99.90;;;;;;5059342;28;20056;-75
2022/09/13 01:04:31;;;;;;;20.20;14.77;;;17.60;99.90;;;;;;5059058;28;20048;-75
2022/09/13 01:07:05;;;;;;;22.33;15.25;;;17.50;99.90;;;;;;5076241;28;20114;-75
2022/09/13 01:09:35;;;;;;;19.60;14.68;;;17.50;99.90;;;;;;5075542;28;20047;-74
2022/09/13 01:12:07;;;;;;;22.85;15.10;;;17.50;99.90;;;;;;5075342;28;20057;-75
2022/09/13 01:14:33;;;;;;;20.60;14.50;;;17.50;99.90;;;;;;5075671;28;20501;-74
2022/09/13 01:16:59;;;;;;;20.23;14.25;;;17.40;99.90;;;;;;5074402;28;20131;-74
2022/09/13 01:19:25;;;;;;;18.25;13.63;;;17.50;99.90;;;;;;5076564;28;20041;-72
2022/09/13 01:22:38;;;;;;;19.15;13.75;;;17.50;99.90;;;;;;5076182;28;20385;-72
2022/09/13 01:25:28;;;;;;;16.42;12.40;;;17.50;99.90;;;;;;5048167;28;20512;-73
2022/09/13 01:28:36;;;;;;;18.42;13.18;;;17.30;99.90;;;;;;5075062;28;20059;-74
2022/09/13 01:31:24;;;;;;;18.65;13.13;;;17.70;99.90;;;;;;5074795;28;20037;-74
2022/09/13 01:34:05;;;;;;;17.15;12.55;;;17.30;99.90;;;;;;5075677;28;20074;-74
2022/09/13 01:37:04;;;;;;;19.52;13.13;;;17.30;99.90;;;;;;5058485;28;20045;-74
2022/09/13 01:39:43;;;;;;;17.50;11.73;;;17.30;99.90;;;;;;5075795;28;20485;-74
2022/09/13 01:42:23;;;;;;;17.27;12.38;;;17.10;99.90;;;;;;5076016;28;20051;-74
2022/09/13 01:44:59;;;;;;;17.63;12.65;;;17.10;99.90;;;;;;5074521;28;20051;-74
2022/09/13 01:47:27;;;;;;;16.80;11.45;;;17.30;99.90;;;;;;5075538;28;20056;-75
2022/09/13 01:50:17;;;;;;;14.45;11.10;;;17.40;99.90;;;;;;5075446;28;20041;-75
2022/09/13 01:52:57;;;;;;;16.33;10.52;;;17.30;99.90;;;;;;5075507;28;20059;-75
2022/09/13 01:55:37;;;;;;;15.55;11.32;;;17.20;99.90;;;;;;5075498;28;20051;-75
2022/09/13 01:58:18;;;;;;;14.80;10.88;;;17.10;99.90;;;;;;5074631;28;20048;-75
2022/09/13 02:01:14;;;;;;;15.85;10.25;;;17.30;99.90;;;;;;5057853;28;20049;-75
2022/09/13 02:03:52;;;;;;;11.65;8.57;;;17.10;99.90;;;;;;5073460;28;20135;-73
2022/09/13 02:06:22;;;;;;;8.93;6.68;;;18.20;99.90;;;;;;5075337;28;20056;-74
2022/09/13 02:08:56;;;;;;;9.15;6.93;;;17.20;99.90;;;;;;5075675;28;20052;-74
2022/09/13 02:11:22;;;;;;;11.48;7.00;;;17.40;99.90;;;;;;5074255;28;20123;-73
2022/09/13 02:13:53;;;;;;;5.18;4.15;;;17.50;99.90;;;;;;5057505;28;20055;-73
2022/09/13 02:16:31;;;;;;;6.93;5.00;;;17.30;99.90;;;;;;5057417;28;20045;-80
2022/09/13 02:19:01;;;;;;;8.15;5.28;;;17.40;99.90;;;;;;5075061;28;20132;-74
2022/09/13 02:21:33;;;;;;;8.55;5.57;;;17.70;99.90;;;;;;5075137;28;20052;-73
2022/09/13 02:24:21;;;;;;;8.48;6.15;;;17.70;99.90;;;;;;5074066;28;20057;-74
2022/09/13 02:26:51;;;;;;;12.00;6.70;;;17.50;99.90;;;;;;5074095;28;20045;-74
2022/09/13 02:29:21;;;;;;;6.88;6.07;;;17.60;99.90;;;;;;5073536;28;20036;-75
2022/09/13 02:32:36;;;;;;;8.88;6.40;;;17.40;99.90;;;;;;5073739;28;20052;-73
2022/09/13 02:35:12;;;;;;;10.95;7.40;;;17.50;99.90;;;;;;5073748;28;20058;-74
2022/09/13 02:37:40;;;;;;;11.98;8.65;;;17.40;99.90;;;;;;5074676;28;20097;-74
2022/09/13 02:40:16;;;;;;;9.98;8.10;;;17.50;99.90;;;;;;5074658;28;20076;-75
2022/09/13 02:42:46;;;;;;;10.88;8.27;;;18.00;99.90;;;;;;5073975;28;20503;-74
2022/09/13 02:45:14;;;;;;;11.90;8.55;;;17.50;99.90;;;;;;5074537;28;20041;-74
2022/09/13 02:48:09;;;;;;;11.95;8.95;;;17.50;99.90;;;;;;5072908;28;20052;-73
2022/09/13 02:50:58;;;;;;;13.10;9.10;;;17.50;99.90;;;;;;5073565;28;20040;-73
2022/09/13 02:53:42;;;;;;;11.75;8.50;;;17.40;99.90;;;;;;5074412;28;20139;-74
2022/09/13 02:56:41;;;;;;;12.23;8.43;;;17.60;99.90;;;;;;5090526;28;20141;-74
2022/09/13 02:59:16;;;;;;;12.43;9.20;;;17.30;99.90;;;;;;5073211;28;20049;-75
2022/09/13 03:01:55;;;;;;;12.85;10.13;;;17.40;99.90;;;;;;5073260;28;20538;-74
2022/09/13 03:04:21;;;;;;;12.75;9.73;;;17.60;99.90;;;;;;5074218;28;20048;-74
2022/09/13 03:06:49;;;;;;;13.00;8.80;;;17.40;99.90;;;;;;5072674;28;20044;-75
2022/09/13 03:09:16;;;;;;;11.85;9.40;;;17.60;99.90;;;;;;5072921;28;20125;-73
2022/09/13 03:12:02;;;;;;;13.80;9.50;;;17.50;99.90;;;;;;5074074;28;20145;-74
2022/09/13 03:14:47;;;;;;;13.88;10.15;;;17.30;99.90;;;;;;5056475;28;20055;-74
2022/09/13 03:17:26;;;;;;;13.82;9.55;;;17.50;99.90;;;;;;5072173;28;20576;-74
2022/09/13 03:20:22;;;;;;;12.57;9.68;;;17.40;99.90;;;;;;5073342;28;20135;-73
2022/09/13 03:23:02;;;;;;;14.07;10.30;;;17.40;99.90;;;;;;5063956;28;20044;-75
2022/09/13 03:25:45;;;;;;;15.10;11.20;;;17.70;99.90;;;;;;5072873;28;20491;-75
2022/09/13 03:28:36;;;;;;;17.73;11.50;;;17.40;99.90;;;;;;5073045;28;20051;-74
2022/09/13 03:31:20;;;;;;;15.35;10.82;;;17.40;99.90;;;;;;5073386;28;20455;-74
2022/09/13 03:33:51;;;;;;;18.98;11.55;;;17.50;99.90;;;;;;5072914;28;20071;-74
2022/09/13 03:36:30;;;;;;;14.98;10.80;;;17.40;99.90;;;;;;5073989;28;20435;-74
2022/09/13 03:39:05;;;;;;;16.98;11.70;;;17.30;99.90;;;;;;5074136;28;20063;-74
2022/09/13 03:41:35;;;;;;;16.90;11.48;;;17.40;99.90;;;;;;5072832;28;20098;-72
2022/09/13 03:44:05;;;;;;;16.77;12.18;;;17.40;99.90;;;;;;5074239;28;20369;-75
2022/09/13 03:46:43;;;;;;;19.25;12.13;;;17.40;99.90;;;;;;5072187;28;20048;-73
2022/09/13 03:49:15;;;;;;;17.48;11.95;;;17.30;99.90;;;;;;5073695;28;20059;-73
2022/09/13 03:51:44;;;;;;;14.43;9.80;;;17.40;99.90;;;;;;5072454;28;20058;-72
2022/09/13 03:54:22;;;;;;;17.10;10.95;;;17.30;99.90;;;;;;5072429;28;20048;-72
2022/09/13 03:57:07;;;;;;;17.77;9.90;;;17.40;99.90;;;;;;5073552;28;20124;-71
2022/09/13 03:59:35;;;;;;;15.82;10.10;;;17.40;99.90;;;;;;5072483;28;20049;-72
2022/09/13 04:02:03;;;;;;;8.57;7.05;;;17.30;99.90;;;;;;5073382;28;20048;-72
2022/09/13 04:04:29;;;;;;;8.25;5.70;;;17.30;99.90;;;;;;5072396;28;20041;-71
2022/09/13 04:06:55;;;;;;;9.07;5.32;;;17.20;99.90;;;;;;5073287;28;20055;-72
2022/09/13 04:09:22;;;;;;;7.65;4.65;;;17.10;99.90;;;;;;5073379;28;20040;-73
2022/09/13 04:11:47;;;;;;;5.78;3.92;;;17.30;99.90;;;;;;5073442;28;20048;-72
2022/09/13 04:14:15;;;;;;;4.68;2.90;;;17.20;99.90;;;;;;5089229;28;20473;-72
2022/09/13 04:16:41;;;;;;;6.43;3.53;;;17.20;99.90;;;;;;5071790;28;20052;-72
2022/09/13 04:19:06;;;;;;;4.47;2.90;;;17.30;99.90;;;;;;5073340;28;20087;-72
2022/09/13 04:21:32;;;;;;;4.15;2.63;;;17.20;99.90;;;;;;5055879;28;20106;-72
2022/09/13 04:23:58;;;;;;;3.53;2.60;;;17.30;99.90;;;;;;5071972;28;20053;-71
2022/09/13 04:26:23;;;;;;;3.75;2.38;;;17.20;99.90;;;;;;5074890;28;20056;-72
2022/09/13 04:28:52;;;;;;;2.97;1.90;;;17.10;99.90;;;;;;5077648;28;20138;-72
2022/09/13 04:31:17;;;;;;;3.28;1.60;;;17.30;99.90;;;;;;5078364;28;20127;-71
2022/09/13 04:33:43;;;;;;;1.92;1.60;;;17.20;99.90;;;;;;5060083;28;20148;-72
2022/09/13 04:36:09;;;;;;;2.28;1.60;;;17.20;99.90;;;;;;5059525;28;20100;-72
2022/09/13 04:38:36;;;;;;;3.80;1.45;;;17.20;99.90;;;;;;5075564;28;20044;-72
2022/09/13 04:41:02;;;;;;;2.38;1.65;;;17.10;99.90;;;;;;5077179;28;20431;-72
2022/09/13 04:43:28;;;;;;;3.42;1.60;;;16.90;99.90;;;;;;5075936;28;20436;-72
2022/09/13 04:45:58;;;;;;;2.90;2.00;;;17.00;99.90;;;;;;5076888;28;20091;-71
2022/09/13 04:48:24;;;;;;;5.15;2.17;;;17.20;99.90;;;;;;5076215;28;20139;-72
2022/09/13 04:50:49;;;;;;;3.10;1.45;;;17.00;99.90;;;;;;5075443;28;20120;-72
2022/09/13 04:53:15;;;;;;;3.35;2.03;;;17.10;99.90;;;;;;5076195;28;20128;-72
2022/09/13 04:55:41;;;;;;;3.70;2.08;;;17.10;99.90;;;;;;5058952;28;20076;-73
2022/09/13 04:58:06;;;;;;;5.32;2.45;;;17.30;99.90;;;;;;5075069;28;20098;-72
2022/09/13 05:00:32;;;;;;;2.15;1.77;;;17.30;99.90;;;;;;5075256;28;20052;-72
2022/09/13 05:02:58;;;;;;;3.03;1.50;;;16.90;99.90;;;;;;5075715;28;20056;-72
2022/09/13 05:05:31;;;;;;;4.40;1.83;;;17.40;99.90;;;;;;5076497;28;20048;-72
2022/09/13 05:07:57;;;;;;;2.40;1.35;;;17.10;99.90;;;;;;5075083;28;20448;-72
2022/09/13 05:10:23;;;;;;;3.83;1.42;;;17.00;99.90;;;;;;5074794;28;20159;-72
2022/09/13 05:12:48;;;;;;;5.03;1.65;;;17.20;99.90;;;;;;5075814;28;20041;-72
2022/09/13 05:15:14;;;;;;;5.72;1.85;;;17.00;99.90;;;;;;5076213;28;20062;-72
2022/09/13 05:17:40;;;;;;;4.43;2.25;;;17.10;99.90;;;;;;5075563;28;20048;-72
2022/09/13 05:20:06;;;;;;;5.05;2.25;;;17.10;99.90;;;;;;5074995;28;20114;-72
2022/09/13 05:22:32;;;;;;;4.03;2.30;;;17.30;99.90;;;;;;5074814;28;20080;-72
2022/09/13 05:24:57;;;;;;;5.68;2.55;;;17.20;99.90;;;;;;5076169;28;20129;-73
2022/09/13 05:27:23;;;;;;;4.50;2.50;;;17.10;99.90;;;;;;5075090;28;20066;-72
2022/09/13 05:29:49;;;;;;;5.88;3.38;;;17.10;99.90;;;;;;5075914;28;20053;-72
2022/09/13 05:32:14;;;;;;;3.80;2.72;;;17.00;99.90;;;;;;5058351;28;20116;-73
2022/09/13 05:34:40;;;;;;;6.85;3.70;;;17.00;99.90;;;;;;5058306;28;20068;-73
2022/09/13 05:37:06;;;;;;;5.75;2.90;;;17.20;99.90;;;;;;5058259;28;20084;-73
2022/09/13 05:39:31;;;;;;;4.18;2.88;;;17.30;99.90;;;;;;5058156;28;20101;-72
2022/09/13 05:41:57;;;;;;;7.22;3.10;;;17.10;99.90;;;;;;5074638;28;20051;-72
2022/09/13 05:44:23;;;;;;;5.30;2.25;;;16.90;99.90;;;;;;5075720;28;20048;-74
2022/09/13 05:46:49;;;;;;;3.40;1.80;;;17.40;99.90;;;;;;5073831;28;20136;-73
2022/09/13 05:49:15;;;;;;;3.70;1.55;;;17.30;99.90;;;;;;5075552;28;20048;-73
2022/09/13 05:51:40;;;;;;;5.65;1.67;;;17.00;99.90;;;;;;5075605;28;20048;-72
2022/09/13 05:54:07;;;;;;;3.53;1.73;;;17.20;99.90;;;;;;5075500;28;20047;-71
2022/09/13 05:56:32;;;;;;;3.30;1.58;;;17.20;99.90;;;;;;5074510;28;20049;-72
2022/09/13 05:58:58;;;;;;;3.38;1.60;;;17.30;99.90;;;;;;5075467;28;20048;-72
2022/09/13 06:01:26;;;;;;;5.32;1.50;;;17.10;99.90;;;;;;5075498;28;20081;-72
2022/09/13 06:03:55;;;;;;;4.20;1.30;;;17.10;99.90;;;;;;5075321;28;20102;-72
2022/09/13 06:06:22;;;;;;;3.30;1.15;;;17.20;99.90;;;;;;5075371;28;20040;-73
2022/09/13 06:08:52;;;;;;;4.05;1.50;;;17.10;99.90;;;;;;5057586;28;20421;-72
2022/09/13 06:11:18;;;;;;;5.72;1.45;;;17.20;99.90;;;;;;5075112;28;20037;-71
2022/09/13 06:13:44;;;;;;;3.28;1.00;;;17.10;99.90;;;;;;5074177;28;20053;-71
2022/09/13 06:16:11;;;;;;;5.13;1.00;;;17.30;99.90;;;;;;5073907;28;20131;-72
2022/09/13 06:18:37;;;;;;;3.55;1.10;;;17.30;99.90;;;;;;5073474;28;20473;-71
2022/09/13 06:21:08;;;;;;;4.63;1.30;;;17.10;99.90;;;;;;5073860;28;20124;-72
2022/09/13 06:23:34;;;;;;;3.78;1.33;;;17.90;99.90;;;;;;5073657;28;20493;-72
2022/09/13 06:26:09;;;;;;;5.57;1.90;;;17.20;99.90;;;;;;5075697;28;20443;-72
2022/09/13 06:28:36;;;;;;;3.95;1.20;;;17.20;99.90;;;;;;5074765;28;20465;-72
2022/09/13 06:31:05;;;;;;;4.40;0.80;;;17.30;99.90;;;;;;5074328;28;20361;-72
2022/09/13 06:33:35;;;;;;;5.13;0.80;;;17.20;99.90;;;;;;5075078;28;20055;-72
2022/09/13 06:36:02;;;;;;;6.20;0.85;;;17.20;99.90;;;;;;5057335;28;20044;-72
2022/09/13 06:38:28;;;;;;;4.93;0.90;;;17.30;99.90;;;;;;5074691;28;20131;-72
2022/09/13 06:41:03;;;;;;;6.15;1.15;;;17.00;99.90;;;;;;5073574;28;20045;-71
2022/09/13 06:43:29;;;;;;;3.58;0.80;;;17.30;99.90;;;;;;5057155;28;20094;-72
2022/09/13 06:46:03;;;;;;;7.93;1.30;;;17.20;99.90;;;;;;5056892;28;20052;-72
2022/09/13 06:48:38;;;;;;;5.97;0.90;;;17.30;99.90;;;;;;5072476;28;20051;-72
2022/09/13 06:51:12;;;;;;;4.13;1.00;;;17.30;99.90;;;;;;5073154;28;20053;-73
2022/09/13 06:53:39;;;;;;;4.65;1.00;;;17.30;99.90;;;;;;5073845;28;20052;-72
2022/09/13 06:56:16;;;;;;;4.30;0.80;;;17.10;99.90;;;;;;5073420;28;20080;-72
2022/09/13 06:58:44;;;;;;;1.75;0.80;;;17.30;99.90;;;;;;5074765;28;20044;-72
2022/09/13 07:01:20;;;;;;;5.40;1.25;;;17.10;99.90;;;;;;5072906;28;20132;-72
2022/09/13 07:04:01;;;;;;;3.35;1.00;;;17.40;99.90;;;;;;5056743;28;20052;-72
2022/09/13 07:06:29;;;;;;;3.15;0.60;;;17.40;99.90;;;;;;5074395;28;20045;-72
2022/09/13 07:08:57;;;;;;;7.60;0.85;;;17.40;99.90;;;;;;5074606;28;20060;-72
2022/09/13 07:11:25;;;;;;;3.47;0.70;;;17.50;99.90;;;;;;5073937;28;20099;-72
2022/09/13 07:13:56;;;;;;;2.88;0.82;;;17.50;99.90;;;;;;5073948;28;20083;-72
2022/09/13 07:16:25;;;;;;;3.50;0.80;;;17.50;99.90;;;;;;5074002;28;20063;-71
2022/09/13 07:18:53;;;;;;;2.47;0.88;;;17.60;99.90;;;;;;5072478;28;20088;-72
2022/09/13 07:21:19;;;;;;;4.28;0.70;;;17.50;99.90;;;;;;5072852;28;20485;-72
2022/09/13 07:23:45;;;;;;;3.65;0.80;;;17.20;99.90;;;;;;5072853;28;20055;-71
2022/09/13 07:26:11;;;;;;;5.22;0.90;;;17.50;99.90;;;;;;5073042;28;20396;-72
2022/09/13 07:28:39;;;;;;;2.30;0.60;;;17.30;99.90;;;;;;5073837;28;20044;-71
2022/09/13 07:31:14;;;;;;;5.10;0.90;;;17.50;99.90;;;;;;5073611;28;20054;-71
2022/09/13 07:33:41;;;;;;;6.78;0.73;;;17.40;99.90;;;;;;5074201;28;20396;-71
2022/09/13 07:36:08;;;;;;;5.13;0.50;;;17.50;99.90;;;;;;5073629;28;20044;-72
2022/09/13 07:38:39;;;;;;;2.72;0.70;;;17.50;99.90;;;;;;5073519;28;20063;-73
2022/09/13 07:41:07;;;;;;;4.22;0.73;;;17.60;99.90;;;;;;5072526;28;20052;-72
2022/09/13 07:43:33;;;;;;;2.95;0.68;;;17.80;99.90;;;;;;5072583;28;20040;-72
2022/09/13 07:46:05;;;;;;;3.67;0.60;;;17.60;99.90;;;;;;5073211;28;20480;-72
2022/09/13 07:48:33;;;;;;;4.43;0.60;;;17.50;99.90;;;;;;5073470;28;20052;-73
2022/09/13 07:51:05;;;;;;;4.70;0.80;;;17.80;99.90;;;;;;5074038;28;20051;-73
2022/09/13 07:53:32;;;;;;;3.47;0.70;;;17.70;99.90;;;;;;5072671;28;20080;-73
2022/09/13 07:56:12;;;;;;;2.45;0.52;;;17.70;99.90;;;;;;5072419;28;20051;-72
2022/09/13 07:58:40;;;;;;;4.43;0.50;;;17.70;99.90;;;;;;5072623;28;20094;-72
2022/09/13 08:01:09;;;;;;;2.30;0.60;;;17.70;99.90;;;;;;5074032;28;20497;-73
2022/09/13 08:03:36;;;;;;;3.70;0.70;;;17.80;99.90;;;;;;5077747;28;20056;-74
2022/09/13 08:06:03;;;;;;;0.90;0.40;;;17.60;99.90;;;;;;5077757;28;20044;-74
2022/09/13 08:08:31;;;;;;;5.38;0.50;;;17.60;99.90;;;;;;5076403;28;20056;-75
2022/09/13 08:10:57;;;;;;;5.18;0.50;;;17.70;99.90;;;;;;5077156;28;20055;-74
2022/09/13 08:13:23;;;;;;;0.85;0.40;;;17.90;99.90;;;;;;5076638;28;20055;-73
2022/09/13 08:15:49;;;;;;;1.13;0.30;;;18.00;99.90;;;;;;5077553;28;20048;-72
2022/09/13 08:18:16;;;;;;;2.50;0.38;;;17.60;99.90;;;;;;5077049;28;20051;-75
2022/09/13 08:20:42;;;;;;;2.85;0.32;;;17.70;99.90;;;;;;5077467;28;20119;-72
2022/09/13 08:23:10;;;;;;;5.13;0.50;;;17.60;99.90;;;;;;5077382;28;20133;-72
2022/09/13 08:25:37;;;;;;;3.90;0.60;;;17.40;99.90;;;;;;5077337;28;20048;-72
2022/09/13 08:28:14;;;;;;;3.15;0.32;;;17.60;99.90;;;;;;5076290;28;20489;-74
2022/09/13 08:30:42;;;;;;;2.17;0.40;;;17.60;99.90;;;;;;5076021;28;20048;-70
2022/09/13 08:33:09;;;;;;;2.38;0.40;;;17.90;99.90;;;;;;5076244;28;20197;-73
2022/09/13 08:35:35;;;;;;;2.42;0.40;;;17.70;99.90;;;;;;5076127;28;20131;-70
2022/09/13 08:38:01;;;;;;;2.83;0.60;;;17.90;99.90;;;;;;5077079;28;20170;-71
2022/09/13 08:40:31;;;;;;;3.53;0.50;;;17.80;99.90;;;;;;5076034;28;20495;-69
2022/09/13 08:43:04;;;;;;;5.50;1.10;;;17.90;99.90;;;;;;5076949;28;20052;-69
2022/09/13 08:45:29;;;;;;;5.47;0.60;;;18.30;99.90;;;;;;5076926;28;20145;-71
2022/09/13 08:48:05;;;;;;;5.65;0.80;;;18.20;99.90;;;;;;5076452;28;20516;-70
2022/09/13 08:50:35;;;;;;;3.50;0.40;;;18.20;99.90;;;;;;5076859;28;20032;-71
2022/09/13 08:53:26;;;;;;;2.63;0.50;;;18.00;99.90;;;;;;5076724;28;20186;-72
2022/09/13 08:55:55;;;;;;;2.15;0.50;;;18.40;99.90;;;;;;5076500;28;20052;-73
2022/09/13 08:58:59;;;;;;;3.53;0.50;;;17.90;99.90;;;;;;5076662;28;20080;-72
2022/09/13 09:01:55;;;;;;;3.28;0.40;;;17.70;99.90;;;;;;5076642;28;20476;-72
2022/09/13 09:04:27;;;;;;;5.15;0.40;;;18.10;99.90;;;;;;5076583;28;20048;-71
2022/09/13 09:07:09;;;;;;;3.80;0.38;;;18.00;99.90;;;;;;5075368;28;20052;-72
2022/09/13 09:09:41;;;;;;;4.47;0.43;;;18.30;99.90;;;;;;5075111;28;20084;-73
2022/09/13 09:12:21;;;;;;;2.25;0.43;;;18.40;99.90;;;;;;5076667;28;20059;-72
2022/09/13 09:14:59;;;;;;;3.85;0.40;;;18.30;99.90;;;;;;5076563;28;20048;-75
2022/09/13 09:17:33;;;;;;;3.05;0.40;;;18.50;99.90;;;;;;5076057;28;20078;-74
2022/09/13 09:20:33;;;;;;;2.97;0.47;;;18.30;99.90;;;;;;5075199;28;20048;-71
2022/09/13 09:23:13;;;;;;;3.88;0.40;;;18.60;99.90;;;;;;5064972;28;20056;-72
2022/09/13 09:25:39;;;;;;;3.90;0.30;;;18.20;99.90;;;;;;5082614;28;20049;-72
2022/09/13 09:28:16;;;;;;;5.35;0.50;;;18.20;99.90;;;;;;5075656;28;20040;-72
2022/09/13 09:30:58;;;;;;;2.60;0.40;;;18.40;99.90;;;;;;5074458;28;20065;-72
2022/09/13 09:33:48;;;;;;;3.65;0.40;;;18.60;99.90;;;;;;5051900;28;20047;-73
2022/09/13 09:36:27;;;;;;;3.10;0.52;;;18.40;99.90;;;;;;5074182;28;20044;-74
2022/09/13 09:38:54;;;;;;;2.78;0.30;;;18.70;99.90;;;;;;5072830;28;20102;-72
2022/09/13 09:41:34;;;;;;;3.75;0.38;;;18.40;99.90;;;;;;5075503;28;20084;-74
2022/09/13 09:44:19;;;;;;;1.60;0.30;;;18.40;99.90;;;;;;5074618;28;20049;-72
2022/09/13 09:47:19;;;;;;;1.98;0.40;;;18.50;99.90;;;;;;5074329;28;20045;-72
2022/09/13 09:52:55;;;;;;;3.45;0.38;;;19.00;99.90;;;;;;5073683;28;20049;-73
2022/09/13 09:55:21;;;;;;;2.63;0.32;;;18.80;99.90;;;;;;5074640;28;20602;-74
2022/09/13 09:58:04;;;;;;;1.88;0.30;;;18.70;99.90;;;;;;5071072;28;20127;-75
2022/09/13 10:00:34;;;;;;;1.63;0.50;;;18.90;99.90;;;;;;5067728;28;20094;-74
2022/09/13 10:03:04;;;;;;;4.30;0.43;;;19.10;99.90;;;;;;5068406;28;20086;-76
2022/09/13 10:05:31;;;;;;;4.75;0.40;;;18.90;99.90;;;;;;5067485;28;20545;-79
2022/09/13 10:08:19;;;;;;;3.33;0.65;;;19.00;99.90;;;;;;5070194;28;20129;-74
2022/09/13 10:10:52;;;;;;;2.40;0.38;;;19.00;99.90;;;;;;5067241;28;20048;-74
2022/09/13 10:13:21;;;;;;;4.72;0.50;;;18.90;99.90;;;;;;5065615;28;20044;-74
2022/09/13 10:15:54;;;;;;;2.45;0.30;;;19.00;99.90;;;;;;5050393;28;20056;-75
2022/09/13 10:18:25;;;;;;;2.83;0.43;;;18.90;99.90;;;;;;5064151;28;20101;-79
2022/09/13 10:21:25;;;;;;;3.58;0.40;;;18.20;99.90;;;;;;5068337;28;20044;-75
2022/09/13 10:23:52;;;;;;;3.28;0.40;;;19.10;99.90;;;;;;5062847;28;20075;-77
2022/09/13 10:26:23;;;;;;;0.73;0.20;;;18.90;99.90;;;;;;5066824;28;20705;-74
2022/09/13 10:29:12;;;;;;;1.67;0.30;;;19.00;99.90;;;;;;5067594;28;20051;-75
2022/09/13 10:31:42;;;;;;;3.80;0.43;;;19.20;99.90;;;;;;5067714;28;20044;-74
2022/09/13 10:34:21;;;;;;;2.85;0.30;;;19.40;99.90;;;;;;5070102;28;20052;-86
2022/09/13 10:37:03;;;;;;;2.22;0.50;;;19.40;99.90;;;;;;5068271;28;20063;-74
2022/09/13 10:39:33;;;;;;;4.40;0.40;;;19.40;99.90;;;;;;5068086;28;20094;-77
2022/09/13 10:42:05;;;;;;;4.03;0.65;;;19.30;99.90;;;;;;5068149;28;20057;-75
2022/09/13 10:44:41;;;;;;;3.50;0.40;;;19.60;99.90;;;;;;5068979;28;20079;-76
2022/09/13 10:47:17;;;;;;;2.35;0.40;;;19.30;99.90;;;;;;5068273;28;20131;-75
2022/09/13 10:49:51;;;;;;;3.00;0.40;;;19.50;99.90;;;;;;5067298;28;20391;-73
2022/09/13 10:52:30;;;;;;;3.42;0.50;;;19.60;99.90;;;;;;5069829;28;20098;-71
2022/09/13 10:55:18;;;;;;;4.07;0.40;;;19.30;99.90;;;;;;5070044;28;20045;-76
2022/09/13 10:57:45;;;;;;;2.83;0.60;;;19.20;99.90;;;;;;5052757;28;20447;-75
2022/09/13 11:00:15;;;;;;;1.80;0.32;;;19.40;99.90;;;;;;5068911;28;20052;-76
2022/09/13 11:03:24;;;;;;;3.60;0.40;;;19.40;99.90;;;;;;5068989;28;20067;-75
2022/09/13 11:05:59;;;;;;;3.10;0.40;;;19.20;99.90;;;;;;5068848;28;20601;-77
2022/09/13 11:08:41;;;;;;;2.28;0.40;;;19.20;99.90;;;;;;5068531;28;20496;-77
2022/09/13 11:11:17;;;;;;;1.52;0.30;;;19.30;99.90;;;;;;5068950;28;20036;-75
2022/09/13 11:14:09;;;;;;;2.65;0.40;;;19.30;99.90;;;;;;5069604;28;20044;-76
2022/09/13 11:17:02;;;;;;;2.95;0.30;;;19.50;99.90;;;;;;5069403;28;20459;-75
2022/09/13 11:19:28;;;;;;;;;;;19.60;99.90;;;;;;5070007;28;20392;-77
2022/09/13 11:22:13;;;;;;;1.35;0.25;;;19.50;99.90;;;;;;5070003;28;19928;-77
2022/09/13 11:25:03;;;;;;;1.67;0.28;;;19.30;99.90;;;;;;5068256;28;20055;-78
2022/09/13 11:28:06;;;;;;;4.22;0.40;;;19.40;99.90;;;;;;5055058;28;20070;-74
2022/09/13 11:30:58;;;;;;;1.27;0.30;;;19.30;99.90;;;;;;5068322;28;20451;-74
2022/09/13 11:33:51;;;;;;;1.48;0.30;;;19.40;99.90;;;;;;5068750;28;20076;-74
2022/09/13 11:36:32;;;;;;;2.30;0.30;;;19.40;99.90;;;;;;5068005;28;20154;-82
2022/09/13 11:39:12;;;;;;;1.10;0.20;;;19.70;99.90;;;;;;5067919;28;20444;-75
2022/09/13 11:42:03;;;;;;;2.58;0.30;;;19.60;99.90;;;;;;5068867;28;20060;-78
2022/09/13 11:45:01;;;;;;;3.10;0.20;;;19.80;99.90;;;;;;5069505;28;20067;-75
2022/09/13 11:47:46;;;;;;;2.35;0.30;;;19.80;99.90;;;;;;5069976;28;20083;-75
2022/09/13 11:50:31;;;;;;;2.08;0.38;;;19.80;99.90;;;;;;5069066;28;20040;-74
2022/09/13 11:53:28;;;;;;;3.38;0.40;;;20.10;99.90;;;;;;5066961;28;20059;-76
2022/09/13 11:56:02;;;;;;;4.38;0.68;;;19.90;99.90;;;;;;5068348;28;20051;-80
2022/09/13 11:58:46;;;;;;;2.75;0.30;;;20.10;99.90;;;;;;5067275;28;20132;-78
2022/09/13 12:01:19;;;;;;;3.67;0.40;;;20.20;99.90;;;;;;5064732;28;20389;-75
2022/09/13 12:04:26;;;;;;;2.20;0.40;;;20.10;99.90;;;;;;5066081;28;20057;-76
2022/09/13 12:06:58;;;;;;;3.63;0.60;;;19.90;99.90;;;;;;5065255;28;20040;-76
2022/09/13 12:09:35;;;;;;;3.23;0.30;;;20.00;99.90;;;;;;5065944;28;20040;-74
2022/09/13 12:12:11;;;;;;;3.88;0.50;;;20.00;99.90;;;;;;5064682;28;20275;-77
2022/09/13 12:14:51;;;;;;;4.47;0.63;;;20.00;99.90;;;;;;5065468;28;20060;-75
2022/09/13 12:17:58;;;;;;;3.45;0.40;;;20.10;99.90;;;;;;5063902;28;20048;-80
2022/09/13 12:20:32;;;;;;;5.20;0.60;;;20.00;99.90;;;;;;5056561;28;20057;-76
2022/09/13 12:23:03;;;;;;;1.83;0.68;;;19.90;99.90;;;;;;5067025;28;20464;-75
2022/09/13 12:26:08;;;;;;;2.50;0.35;;;20.10;99.90;;;;;;5066568;28;20041;-73
2022/09/13 12:28:41;;;;;;;4.15;0.50;;;20.00;99.90;;;;;;5036293;28;20526;-77
2022/09/13 12:31:14;;;;;;;2.33;0.52;;;20.00;99.90;;;;;;5066639;28;20052;-75
2022/09/13 12:33:42;;;;;;;2.40;0.35;;;20.00;99.90;;;;;;5067531;28;20127;-77
2022/09/13 12:36:24;;;;;;;1.77;0.38;;;20.10;99.90;;;;;;5068600;28;20045;-76
2022/09/13 12:39:13;;;;;;;1.92;0.30;;;20.40;99.90;;;;;;5065818;28;20072;-78
2022/09/13 12:42:03;;;;;;;3.25;0.40;;;20.20;99.90;;;;;;5072370;28;20044;-72
2022/09/13 12:45:09;;;;;;;1.48;0.30;;;20.50;99.90;;;;;;5071131;28;20043;-74
2022/09/13 12:47:47;;;;;;;2.95;0.40;;;20.20;99.90;;;;;;5074051;28;20091;-75
2022/09/13 12:50:24;;;;;;;2.10;0.50;;;20.50;99.90;;;;;;5074992;28;20485;-76
2022/09/13 12:53:02;;;;;;;2.35;0.30;;;20.40;99.90;;;;;;5074732;28;20484;-72
2022/09/13 12:55:52;;;;;;;2.90;0.30;;;20.40;99.90;;;;;;5074625;28;20392;-73
2022/09/13 12:58:18;;;;;;;4.13;0.40;;;20.40;99.90;;;;;;5074702;28;20430;-75
2022/09/13 13:01:10;;;;;;;2.47;0.50;;;20.30;99.90;;;;;;5075145;28;20052;-73
2022/09/13 13:04:02;;;;;;;3.38;0.40;;;20.20;99.90;;;;;;5074240;28;20047;-75
2022/09/13 13:06:33;;;;;;;2.65;0.40;;;20.10;99.90;;;;;;5075278;28;20048;-73
2022/09/13 13:09:04;;;;;;;4.53;0.52;;;20.20;99.90;;;;;;5074746;28;20044;-77
2022/09/13 13:11:41;;;;;;;2.35;0.40;;;20.00;99.90;;;;;;5076116;28;20045;-76
2022/09/13 13:14:27;;;;;;;1.83;0.43;;;19.90;99.90;;;;;;5071784;28;20109;-77
2022/09/13 13:16:53;;;;;;;2.53;0.30;;;19.90;99.90;;;;;;5074926;28;20051;-74
2022/09/13 13:19:35;;;;;;;4.13;0.40;;;19.90;99.90;;;;;;5075467;28;20032;-76
2022/09/13 13:22:39;;;;;;;2.92;0.30;;;19.90;99.90;;;;;;5075866;28;20047;-77
2022/09/13 13:25:23;;;;;;;;;;;19.80;99.90;;;;;;5073927;28;20048;-77